Erik Bye — LITD — position and weather

sailwx.info

Track history (hours):
 
Tides and Currents Weather Stations Pressure Air Temp Water Temp Dewpoint Dewpoint Depression Visibility Wind Speed Wind Dir Waves Ship Positions

Erik Bye

Last reported at 2017-Sep-20 20:58 UTC. Time now 2017-Sep-21 01:49 UTC.
Position N 63°07' E 007°44'.

Length 20 m; draft 3 m.

Type: SAR. MMSI: 259460000.

Date/timePositionNaut miles runAvg speedWind from/ knotsBaromVisibWave heightAir tempDewpointWater temp
2017-Sep-20 20:58N 63°07' E 007°44'0 0.0
2017-Sep-20 20:28N 63°07' E 007°44'0 0.0
2017-Sep-20 19:58N 63°07' E 007°44'0 0.0
2017-Sep-20 19:28N 63°07' E 007°44'0 0.0
2017-Sep-20 18:58N 63°07' E 007°44'0 0.0
2017-Sep-20 18:28N 63°07' E 007°44'0 0.0
2017-Sep-20 17:58N 63°07' E 007°44'0 0.0
2017-Sep-20 17:28N 63°07' E 007°44'0 0.0
2017-Sep-20 16:58N 63°07' E 007°44'0 0.0
2017-Sep-20 16:30N 63°07' E 007°44'1 2.0
2017-Sep-20 16:01N 63°06' E 007°43'1 1.7
2017-Sep-20 15:25N 63°07' E 007°44'0 0.0
2017-Sep-20 14:55N 63°07' E 007°44'1 0.8
2017-Sep-20 14:00N 63°07' E 007°46'0 0.5
2017-Sep-20 13:30N 63°07' E 007°46'1 1.2
2017-Sep-20 12:59N 63°07' E 007°44'0 0.0
2017-Sep-20 12:29N 63°07' E 007°44'0 0.0
2017-Sep-20 11:59N 63°07' E 007°44'0 0.0
2017-Sep-20 11:29N 63°07' E 007°44'0 0.0
2017-Sep-20 10:59N 63°07' E 007°44'0 0.0
2017-Sep-20 10:29N 63°07' E 007°44'0 0.0
2017-Sep-20 09:59N 63°07' E 007°44'0 0.0
2017-Sep-20 09:29N 63°07' E 007°44'0 0.0
2017-Sep-20 08:59N 63°07' E 007°44'0 0.0
2017-Sep-20 08:29N 63°07' E 007°44'0 0.0
2017-Sep-20 07:59N 63°07' E 007°44'0 0.0
2017-Sep-20 07:29N 63°07' E 007°44'0 0.0
2017-Sep-20 06:59N 63°07' E 007°44'0 0.0
2017-Sep-20 06:29N 63°07' E 007°44'0 0.0
2017-Sep-20 05:59N 63°07' E 007°44'0 0.0
2017-Sep-20 05:29N 63°07' E 007°44'0 0.0
2017-Sep-20 04:59N 63°07' E 007°44'0 0.0
2017-Sep-20 04:29N 63°07' E 007°44'0 0.0
2017-Sep-20 03:59N 63°07' E 007°44'0 0.0
2017-Sep-20 03:29N 63°07' E 007°44'0 0.0
2017-Sep-20 02:59N 63°07' E 007°44'0 0.0
2017-Sep-20 02:29N 63°07' E 007°44'0 0.0
2017-Sep-20 01:59N 63°07' E 007°44'0 0.0
2017-Sep-20 01:29N 63°07' E 007°44'0 0.0
2017-Sep-20 00:59N 63°07' E 007°44'0 0.0
2017-Sep-20 00:29N 63°07' E 007°44'0 0.0
2017-Sep-19 23:59N 63°07' E 007°44'0 0.0
2017-Sep-19 23:29N 63°07' E 007°44'0 0.0
2017-Sep-19 22:59N 63°07' E 007°44'0 0.0
2017-Sep-19 22:29N 63°07' E 007°44'0 0.0
2017-Sep-19 21:59N 63°07' E 007°44'0 0.0
2017-Sep-19 21:29N 63°07' E 007°44'0 0.0
2017-Sep-19 20:59N 63°07' E 007°44'0 0.0
2017-Sep-19 20:29N 63°07' E 007°44'0 0.0
2017-Sep-19 19:59N 63°07' E 007°44'0 0.0
2017-Sep-19 19:29N 63°07' E 007°44'0 0.0
2017-Sep-19 18:59N 63°07' E 007°44'0 0.0
2017-Sep-19 18:29N 63°07' E 007°44'0 0.0
2017-Sep-19 17:59N 63°07' E 007°44'0 0.0
2017-Sep-19 17:29N 63°07' E 007°44'0 0.0
2017-Sep-19 16:59N 63°07' E 007°44'0 0.0
2017-Sep-19 16:29N 63°07' E 007°44'0 0.0
2017-Sep-19 15:59N 63°07' E 007°44'0 0.0
2017-Sep-19 15:29N 63°07' E 007°44'0 0.0
2017-Sep-19 14:59N 63°07' E 007°44'0 0.0
2017-Sep-19 14:29N 63°07' E 007°44'0 0.0
2017-Sep-19 13:59N 63°07' E 007°44'0 0.0
2017-Sep-19 13:29N 63°07' E 007°44'0 0.0
2017-Sep-19 12:59N 63°07' E 007°44'0 0.0
2017-Sep-19 12:29N 63°07' E 007°44'3 5.9
2017-Sep-19 12:00N 63°08' E 007°50'3 5.7
2017-Sep-19 11:30N 63°07' E 007°44'0 0.1
2017-Sep-19 10:57N 63°07' E 007°44'0 0.0
2017-Sep-19 10:27N 63°07' E 007°44'0 0.0
2017-Sep-19 09:57N 63°07' E 007°44'0 0.0
2017-Sep-19 09:27N 63°07' E 007°44'0 0.0
2017-Sep-19 08:57N 63°07' E 007°44'0 0.0
2017-Sep-19 08:27N 63°07' E 007°44'0 0.0
2017-Sep-19 07:57N 63°07' E 007°44'0 0.0
2017-Sep-19 07:27N 63°07' E 007°44'0 0.0
2017-Sep-19 06:57N 63°07' E 007°44'0 0.0
2017-Sep-19 06:27N 63°07' E 007°44'0 0.0
2017-Sep-19 05:57N 63°07' E 007°44'0 0.0
2017-Sep-19 05:27N 63°07' E 007°44'0 0.0
2017-Sep-19 04:57N 63°07' E 007°44'0 0.0
2017-Sep-19 04:27N 63°07' E 007°44'0 0.0
2017-Sep-19 03:57N 63°07' E 007°44'0 0.0
2017-Sep-19 03:27N 63°07' E 007°44'0 0.0
2017-Sep-19 02:57N 63°07' E 007°44'0 0.0
2017-Sep-19 02:27N 63°07' E 007°44'0 0.0
2017-Sep-19 01:57N 63°07' E 007°44'0 0.0
2017-Sep-19 01:27N 63°07' E 007°44'0 0.0
2017-Sep-19 00:57N 63°07' E 007°44'0 0.0
2017-Sep-19 00:27N 63°07' E 007°44'0 0.0
2017-Sep-18 23:57N 63°07' E 007°44'0 0.0
2017-Sep-18 23:27N 63°07' E 007°44'0 0.0
2017-Sep-18 22:57N 63°07' E 007°44'0 0.0
2017-Sep-18 22:27N 63°07' E 007°44'0 0.0
2017-Sep-18 21:57N 63°07' E 007°44'0 0.0
2017-Sep-18 21:27N 63°07' E 007°44'0 0.0
2017-Sep-18 20:57N 63°07' E 007°44'0 0.0
2017-Sep-18 20:27N 63°07' E 007°44'0 0.0
2017-Sep-18 19:57N 63°07' E 007°44'0 0.0
2017-Sep-18 19:27N 63°07' E 007°44'0 0.0
2017-Sep-18 18:57N 63°07' E 007°44'0 0.0
2017-Sep-18 18:27N 63°07' E 007°44'0 0.0
2017-Sep-18 17:57N 63°07' E 007°44'0 0.0
2017-Sep-18 17:27N 63°07' E 007°44'0 0.0
2017-Sep-18 16:57N 63°07' E 007°44'0 0.0
2017-Sep-18 16:27N 63°07' E 007°44'0 0.0
2017-Sep-18 15:57N 63°07' E 007°44'0 0.0
2017-Sep-18 15:27N 63°07' E 007°44'0 0.0
2017-Sep-18 14:57N 63°07' E 007°44'0 0.0
2017-Sep-18 14:27N 63°07' E 007°44'0 0.0
2017-Sep-18 13:57N 63°07' E 007°44'0 0.0
2017-Sep-18 13:27N 63°07' E 007°44'1 1.2
2017-Sep-18 13:01N 63°07' E 007°44'1 2.2
2017-Sep-18 12:30N 63°06' E 007°42'2 3.1
2017-Sep-18 12:00N 63°07' E 007°44'0 0.5
2017-Sep-18 11:31N 63°07' E 007°45'2 4.8
2017-Sep-18 11:00N 63°08' E 007°49'4 7.8
2017-Sep-18 10:30N 63°07' E 007°57'611.7
2017-Sep-18 10:00N 63°07' E 007°44'0 0.0
2017-Sep-18 09:29N 63°07' E 007°44'0 0.0
2017-Sep-18 08:59N 63°07' E 007°44'0 0.0
2017-Sep-18 08:29N 63°07' E 007°44'0 0.0
2017-Sep-18 07:59N 63°07' E 007°44'0 0.0
2017-Sep-18 07:29N 63°07' E 007°44'0 0.0
2017-Sep-18 06:59N 63°07' E 007°44'0 0.0
2017-Sep-18 06:29N 63°07' E 007°44'0 0.0
2017-Sep-18 05:59N 63°07' E 007°44'0 0.0
2017-Sep-18 05:29N 63°07' E 007°44'0 0.0
2017-Sep-18 04:59N 63°07' E 007°44'0 0.0
2017-Sep-18 04:29N 63°07' E 007°44'0 0.0
2017-Sep-18 03:59N 63°07' E 007°44'0 0.0
2017-Sep-18 03:29N 63°07' E 007°44'0 0.0
2017-Sep-18 02:59N 63°07' E 007°44'0 0.0
2017-Sep-18 02:29N 63°07' E 007°44'0 0.0
2017-Sep-18 01:59N 63°07' E 007°44'0 0.0
2017-Sep-18 01:29N 63°07' E 007°44'0 0.0
2017-Sep-18 00:59N 63°07' E 007°44'0 0.0
2017-Sep-18 00:29N 63°07' E 007°44'0 0.0
2017-Sep-17 23:59N 63°07' E 007°44'0 0.0
2017-Sep-17 23:29N 63°07' E 007°44'0 0.0
2017-Sep-17 22:59N 63°07' E 007°44'0 0.0
2017-Sep-17 22:29N 63°07' E 007°44'0 0.0
2017-Sep-17 21:59N 63°07' E 007°44'0 0.0
2017-Sep-17 21:29N 63°07' E 007°44'0 0.0
2017-Sep-17 20:59N 63°07' E 007°44'0 0.0
2017-Sep-17 20:29N 63°07' E 007°44'0 0.0
2017-Sep-17 19:59N 63°07' E 007°44'0 0.0
2017-Sep-17 19:29N 63°07' E 007°44'0 0.0
2017-Sep-17 18:59N 63°07' E 007°44'0 0.0
2017-Sep-17 18:29N 63°07' E 007°44'0 0.0
2017-Sep-17 17:59N 63°07' E 007°44'0 0.0
2017-Sep-17 17:29N 63°07' E 007°44'0 0.0
2017-Sep-17 16:59N 63°07' E 007°44'0 0.0
2017-Sep-17 16:29N 63°07' E 007°44'0 0.0
2017-Sep-17 15:59N 63°07' E 007°44'0 0.0
2017-Sep-17 15:29N 63°07' E 007°44'0 0.0
2017-Sep-17 14:59N 63°07' E 007°44'0 0.0
2017-Sep-17 14:29N 63°07' E 007°44'0 0.0
2017-Sep-17 13:59N 63°07' E 007°44'0 0.0
2017-Sep-17 13:29N 63°07' E 007°44'0 0.0
2017-Sep-17 12:59N 63°07' E 007°44'0 0.0
2017-Sep-17 12:29N 63°07' E 007°44'0 0.0
2017-Sep-17 11:59N 63°07' E 007°44'0 0.0
2017-Sep-17 11:29N 63°07' E 007°44'0 0.0
2017-Sep-17 10:59N 63°07' E 007°44'0 0.0
2017-Sep-17 10:29N 63°07' E 007°44'0 0.0
2017-Sep-17 09:59N 63°07' E 007°44'0 0.0
2017-Sep-17 09:29N 63°07' E 007°44'0 0.0
2017-Sep-17 08:59N 63°07' E 007°44'0 0.0
2017-Sep-17 08:29N 63°07' E 007°44'0 0.0
2017-Sep-17 07:59N 63°07' E 007°44'0 0.0
2017-Sep-17 07:29N 63°07' E 007°44'0 0.0
2017-Sep-17 06:59N 63°07' E 007°44'0 0.0
2017-Sep-17 06:29N 63°07' E 007°44'0 0.0
2017-Sep-17 05:59N 63°07' E 007°44'0 0.0
2017-Sep-17 05:29N 63°07' E 007°44'0 0.0
2017-Sep-17 04:59N 63°07' E 007°44'0 0.0
2017-Sep-17 04:29N 63°07' E 007°44'0 0.0
2017-Sep-17 03:56N 63°07' E 007°44'0 0.0
2017-Sep-17 03:29N 63°07' E 007°44'0 0.0
2017-Sep-17 02:59N 63°07' E 007°44'0 0.0
2017-Sep-17 02:29N 63°07' E 007°44'0 0.0
2017-Sep-17 01:59N 63°07' E 007°44'0 0.0
2017-Sep-17 01:29N 63°07' E 007°44'0 0.0
2017-Sep-17 00:59N 63°07' E 007°44'0 0.0
2017-Sep-17 00:29N 63°07' E 007°44'0 0.0
2017-Sep-16 23:59N 63°07' E 007°44'0 0.0
2017-Sep-16 23:29N 63°07' E 007°44'0 0.0
2017-Sep-16 22:59N 63°07' E 007°44'0 0.0
2017-Sep-16 22:29N 63°07' E 007°44'0 0.0
2017-Sep-16 21:59N 63°07' E 007°44'0 0.0
2017-Sep-16 21:29N 63°07' E 007°44'0 0.0
2017-Sep-16 20:59N 63°07' E 007°44'0 0.0
2017-Sep-16 20:29N 63°07' E 007°44'0 0.0
2017-Sep-16 19:59N 63°07' E 007°44'0 0.0
2017-Sep-16 19:29N 63°07' E 007°44'0 0.0
2017-Sep-16 18:59N 63°07' E 007°44'0 0.0
2017-Sep-16 18:29N 63°07' E 007°44'0 0.0
2017-Sep-16 17:59N 63°07' E 007°44'0 0.0
2017-Sep-16 17:29N 63°07' E 007°44'0 0.0
2017-Sep-16 16:59N 63°07' E 007°44'0 0.0
2017-Sep-16 16:29N 63°07' E 007°44'0 0.0
2017-Sep-16 15:59N 63°07' E 007°44'0 0.0
2017-Sep-16 15:29N 63°07' E 007°44'0 0.0
2017-Sep-16 14:59N 63°07' E 007°44'0 0.0
2017-Sep-16 14:29N 63°07' E 007°44'0 0.0
2017-Sep-16 13:59N 63°07' E 007°44'0 0.0
2017-Sep-16 13:29N 63°07' E 007°44'0 0.0
2017-Sep-16 12:59N 63°07' E 007°44'0 0.0
2017-Sep-16 12:29N 63°07' E 007°44'0 0.0
2017-Sep-16 11:59N 63°07' E 007°44'1 2.7
2017-Sep-16 11:30N 63°07' E 007°41'3 6.3
2017-Sep-16 11:00N 63°04' E 007°41'3 6.8
2017-Sep-16 10:31N 63°07' E 007°44'0 0.7
2017-Sep-16 09:58N 63°07' E 007°44'0 0.0
2017-Sep-16 09:28N 63°07' E 007°44'0 0.0
2017-Sep-16 08:58N 63°07' E 007°44'0 0.0
2017-Sep-16 08:28N 63°07' E 007°44'0 0.0
2017-Sep-16 07:58N 63°07' E 007°44'0 0.0
2017-Sep-16 07:28N 63°07' E 007°44'0 0.0
2017-Sep-16 06:58N 63°07' E 007°44'0 0.0
2017-Sep-16 06:28N 63°07' E 007°44'0 0.0
2017-Sep-16 05:58N 63°07' E 007°44'0 0.0
2017-Sep-16 05:28N 63°07' E 007°44'0 0.0
2017-Sep-16 04:58N 63°07' E 007°44'0 0.0
2017-Sep-16 04:28N 63°07' E 007°44'0 0.0
2017-Sep-16 03:55N 63°07' E 007°44'0 0.0
2017-Sep-16 03:28N 63°07' E 007°44'0 0.0
2017-Sep-16 02:58N 63°07' E 007°44'0 0.0
2017-Sep-16 02:28N 63°07' E 007°44'0 0.0
2017-Sep-16 01:58N 63°07' E 007°44'0 0.0
2017-Sep-16 01:28N 63°07' E 007°44'0 0.0
2017-Sep-16 00:58N 63°07' E 007°44'0 0.0
2017-Sep-16 00:28N 63°07' E 007°44'0 0.0
2017-Sep-15 23:58N 63°07' E 007°44'0 0.0
2017-Sep-15 23:28N 63°07' E 007°44'0 0.0
2017-Sep-15 22:58N 63°07' E 007°44'0 0.0
2017-Sep-15 22:28N 63°07' E 007°44'0 0.0
2017-Sep-15 21:58N 63°07' E 007°44'0 0.0
2017-Sep-15 21:28N 63°07' E 007°44'0 0.0
2017-Sep-15 20:58N 63°07' E 007°44'0 0.0
2017-Sep-15 20:28N 63°07' E 007°44'0 0.0
2017-Sep-15 19:58N 63°07' E 007°44'0 0.0
2017-Sep-15 19:28N 63°07' E 007°44'0 0.0
2017-Sep-15 18:58N 63°07' E 007°44'0 0.0
2017-Sep-15 18:25N 63°07' E 007°44'0 0.0
2017-Sep-15 17:58N 63°07' E 007°44'0 0.0
2017-Sep-15 17:28N 63°07' E 007°44'0 0.0
2017-Sep-15 16:58N 63°07' E 007°44'0 0.0
2017-Sep-15 16:28N 63°07' E 007°44'0 0.0
2017-Sep-15 15:58N 63°07' E 007°44'0 0.0
2017-Sep-15 15:28N 63°07' E 007°44'0 0.0
2017-Sep-15 14:58N 63°07' E 007°44'0 0.0
2017-Sep-15 14:25N 63°07' E 007°44'0 0.0
2017-Sep-15 13:58N 63°07' E 007°44'0 0.0
2017-Sep-15 13:28N 63°07' E 007°44'0 0.0
2017-Sep-15 12:58N 63°07' E 007°44'0 0.0
2017-Sep-15 12:28N 63°07' E 007°44'0 0.0
2017-Sep-15 11:58N 63°07' E 007°44'0 0.0
2017-Sep-15 11:28N 63°07' E 007°44'0 0.0
2017-Sep-15 10:55N 63°07' E 007°44'0 0.0
2017-Sep-15 10:28N 63°07' E 007°44'0 0.0
2017-Sep-15 09:55N 63°07' E 007°44'0 0.0
2017-Sep-15 09:28N 63°07' E 007°44'0 0.0
2017-Sep-15 08:58N 63°07' E 007°44'0 0.0
2017-Sep-15 08:28N 63°07' E 007°44'0 0.0
2017-Sep-15 07:58N 63°07' E 007°44'0 0.0
2017-Sep-15 07:28N 63°07' E 007°44'0 0.0
2017-Sep-15 06:58N 63°07' E 007°44'0 0.0
2017-Sep-15 06:28N 63°07' E 007°44'0 0.0
2017-Sep-15 05:58N 63°07' E 007°44'0 0.0
2017-Sep-15 05:28N 63°07' E 007°44'0 0.0
2017-Sep-15 04:58N 63°07' E 007°44'0 0.0
2017-Sep-15 04:28N 63°07' E 007°44'0 0.0
2017-Sep-15 03:58N 63°07' E 007°44'0 0.0
2017-Sep-15 03:28N 63°07' E 007°44'0 0.0
2017-Sep-15 02:58N 63°07' E 007°44'0 0.0
2017-Sep-15 02:28N 63°07' E 007°44'0 0.0
2017-Sep-15 01:58N 63°07' E 007°44'0 0.0
2017-Sep-15 01:28N 63°07' E 007°44'0 0.0
2017-Sep-15 00:58N 63°07' E 007°44'0 0.0
2017-Sep-15 00:28N 63°07' E 007°44'0 0.0
2017-Sep-14 23:58N 63°07' E 007°44'0 0.0
2017-Sep-14 23:28N 63°07' E 007°44'0 0.0
2017-Sep-14 22:58N 63°07' E 007°44'0 0.0
2017-Sep-14 22:28N 63°07' E 007°44'0 0.0
2017-Sep-14 21:58N 63°07' E 007°44'0 0.0
2017-Sep-14 21:28N 63°07' E 007°44'0 0.0
2017-Sep-14 20:58N 63°07' E 007°44'0 0.0
2017-Sep-14 20:28N 63°07' E 007°44'0 0.0
2017-Sep-14 19:55N 63°07' E 007°44'0 0.0
2017-Sep-14 19:28N 63°07' E 007°44'0 0.0
2017-Sep-14 18:58N 63°07' E 007°44'0 0.0
2017-Sep-14 18:28N 63°07' E 007°44'0 0.0
2017-Sep-14 17:55N 63°07' E 007°44'0 0.0
2017-Sep-14 17:25N 63°07' E 007°44'0 0.0
2017-Sep-14 16:58N 63°07' E 007°44'0 0.0
2017-Sep-14 16:28N 63°07' E 007°44'0 0.0
2017-Sep-14 15:58N 63°07' E 007°44'0 0.0
2017-Sep-14 15:25N 63°07' E 007°44'0 0.0
2017-Sep-14 14:58N 63°07' E 007°44'0 0.0
2017-Sep-14 14:28N 63°07' E 007°44'0 0.0
2017-Sep-14 13:58N 63°07' E 007°44'0 0.0
2017-Sep-14 13:28N 63°07' E 007°44'0 0.0
2017-Sep-14 12:58N 63°07' E 007°44'0 0.0
2017-Sep-14 12:28N 63°07' E 007°44'0 0.0
2017-Sep-14 11:58N 63°07' E 007°44'0 0.0
2017-Sep-14 11:28N 63°07' E 007°44'0 0.0
2017-Sep-14 10:58N 63°07' E 007°44'0 0.0
2017-Sep-14 10:28N 63°07' E 007°44'0 0.0
2017-Sep-14 09:58N 63°07' E 007°44'0 0.0
2017-Sep-14 09:28N 63°07' E 007°44'0 0.0
2017-Sep-14 08:58N 63°07' E 007°44'0 0.0
2017-Sep-14 08:28N 63°07' E 007°44'0 0.0
2017-Sep-14 07:58N 63°07' E 007°44'0 0.0
2017-Sep-14 07:28N 63°07' E 007°44'0 0.0
2017-Sep-14 06:58N 63°07' E 007°44'0 0.0
2017-Sep-14 06:28N 63°07' E 007°44'0 0.0
2017-Sep-14 05:58N 63°07' E 007°44'0 0.0
2017-Sep-14 05:28N 63°07' E 007°44'0 0.0
2017-Sep-14 04:58N 63°07' E 007°44'0 0.0
2017-Sep-14 04:28N 63°07' E 007°44'0 0.0
2017-Sep-14 03:58N 63°07' E 007°44'0 0.0
2017-Sep-14 03:25N 63°07' E 007°44'0 0.0
2017-Sep-14 02:58N 63°07' E 007°44'0 0.0
2017-Sep-14 02:28N 63°07' E 007°44'0 0.0
2017-Sep-14 01:58N 63°07' E 007°44'0 0.0
2017-Sep-14 01:28N 63°07' E 007°44'0 0.0
2017-Sep-14 00:58N 63°07' E 007°44'0 0.0
2017-Sep-14 00:28N 63°07' E 007°44'0 0.0
2017-Sep-13 23:58N 63°07' E 007°44'0 0.0
2017-Sep-13 23:28N 63°07' E 007°44'0 0.0
2017-Sep-13 22:58N 63°07' E 007°44'0 0.0
2017-Sep-13 22:28N 63°07' E 007°44'0 0.0
2017-Sep-13 21:58N 63°07' E 007°44'0 0.0
2017-Sep-13 21:28N 63°07' E 007°44'0 0.0
2017-Sep-13 20:58N 63°07' E 007°44'0 0.0
2017-Sep-13 20:28N 63°07' E 007°44'0 0.0
2017-Sep-13 19:58N 63°07' E 007°44'0 0.0
2017-Sep-13 19:28N 63°07' E 007°44'0 0.0
2017-Sep-13 18:55N 63°07' E 007°44'0 0.0
2017-Sep-13 18:28N 63°07' E 007°44'0 0.0
2017-Sep-13 17:58N 63°07' E 007°44'0 0.0
2017-Sep-13 17:28N 63°07' E 007°44'0 0.0
2017-Sep-13 16:58N 63°07' E 007°44'0 0.0
2017-Sep-13 16:28N 63°07' E 007°44'0 0.0
2017-Sep-13 15:58N 63°07' E 007°44'0 0.0
2017-Sep-13 15:28N 63°07' E 007°44'0 0.0
2017-Sep-13 14:58N 63°07' E 007°44'0 0.0
2017-Sep-13 14:28N 63°07' E 007°44'0 0.0
2017-Sep-13 13:58N 63°07' E 007°44'0 0.0
2017-Sep-13 13:28N 63°07' E 007°44'0 0.0
2017-Sep-13 12:58N 63°07' E 007°44'0 0.0
2017-Sep-13 12:28N 63°07' E 007°44'0 0.0
2017-Sep-13 11:58N 63°07' E 007°44'0 0.0
2017-Sep-13 11:28N 63°07' E 007°44'0 0.0
2017-Sep-13 10:58N 63°07' E 007°44'0 0.0
2017-Sep-13 10:28N 63°07' E 007°44'0 0.0
2017-Sep-13 09:58N 63°07' E 007°44'0 0.0
2017-Sep-13 09:28N 63°07' E 007°44'0 0.0
2017-Sep-13 08:58N 63°07' E 007°44'0 0.0
2017-Sep-13 08:28N 63°07' E 007°44'0 0.0
2017-Sep-13 07:58N 63°07' E 007°44'0 0.0
2017-Sep-13 07:28N 63°07' E 007°44'0 0.0
2017-Sep-13 06:58N 63°07' E 007°44'0 0.0
2017-Sep-13 06:28N 63°07' E 007°44'0 0.0
2017-Sep-13 05:58N 63°07' E 007°44'0 0.0
2017-Sep-13 05:28N 63°07' E 007°44'0 0.0
2017-Sep-13 04:58N 63°07' E 007°44'0 0.0
2017-Sep-13 04:28N 63°07' E 007°44'0 0.0
2017-Sep-13 03:58N 63°07' E 007°44'0 0.0
2017-Sep-13 03:28N 63°07' E 007°44'0 0.0
2017-Sep-13 02:58N 63°07' E 007°44'0 0.0
2017-Sep-13 02:28N 63°07' E 007°44'0 0.0
2017-Sep-13 01:58N 63°07' E 007°44'0 0.0
2017-Sep-13 01:28N 63°07' E 007°44'0 0.0
2017-Sep-13 00:58N 63°07' E 007°44'0 0.0
2017-Sep-13 00:28N 63°07' E 007°44'0 0.0
2017-Sep-12 23:58N 63°07' E 007°44'0 0.0
2017-Sep-12 23:28N 63°07' E 007°44'0 0.0
2017-Sep-12 22:58N 63°07' E 007°44'0 0.0
2017-Sep-12 22:28N 63°07' E 007°44'0 0.0
2017-Sep-12 21:58N 63°07' E 007°44'0 0.0
2017-Sep-12 21:28N 63°07' E 007°44'0 0.0
2017-Sep-12 20:58N 63°07' E 007°44'0 0.0
2017-Sep-12 20:28N 63°07' E 007°44'0 0.0
2017-Sep-12 19:58N 63°07' E 007°44'0 0.0
2017-Sep-12 19:28N 63°07' E 007°44'0 0.0
2017-Sep-12 18:58N 63°07' E 007°44'0 0.0
2017-Sep-12 18:28N 63°07' E 007°44'0 0.0
2017-Sep-12 17:58N 63°07' E 007°44'0 0.0
2017-Sep-12 17:28N 63°07' E 007°44'0 0.0
2017-Sep-12 16:58N 63°07' E 007°44'0 0.0
2017-Sep-12 16:28N 63°07' E 007°44'0 0.0
2017-Sep-12 15:58N 63°07' E 007°44'0 0.0
2017-Sep-12 15:28N 63°07' E 007°44'0 0.0
2017-Sep-12 14:58N 63°07' E 007°44'0 0.0
2017-Sep-12 14:28N 63°07' E 007°44'0 0.0
2017-Sep-12 13:58N 63°07' E 007°44'0 0.0
2017-Sep-12 13:28N 63°07' E 007°44'0 0.0
2017-Sep-12 12:58N 63°07' E 007°44'0 0.0
2017-Sep-12 12:28N 63°07' E 007°44'0 0.0
2017-Sep-12 11:58N 63°07' E 007°44'0 0.0
2017-Sep-12 11:28N 63°07' E 007°44'0 0.0
2017-Sep-12 10:58N 63°07' E 007°44'0 0.0
2017-Sep-12 10:28N 63°07' E 007°44'0 0.0
2017-Sep-12 09:58N 63°07' E 007°44'0 0.0
2017-Sep-12 09:28N 63°07' E 007°44'0 0.0
2017-Sep-12 08:55N 63°07' E 007°44'0 0.0
2017-Sep-12 08:28N 63°07' E 007°44'0 0.0
2017-Sep-12 07:58N 63°07' E 007°44'0 0.0
2017-Sep-12 07:28N 63°07' E 007°44'0 0.0
2017-Sep-12 06:58N 63°07' E 007°44'0 0.0
2017-Sep-12 06:28N 63°07' E 007°44'0 0.0
2017-Sep-12 05:55N 63°07' E 007°44'0 0.0
2017-Sep-12 05:28N 63°07' E 007°44'0 0.0
2017-Sep-12 04:58N 63°07' E 007°44'0 0.0
2017-Sep-12 04:28N 63°07' E 007°44'0 0.0
2017-Sep-12 03:58N 63°07' E 007°44'0 0.0
2017-Sep-12 03:28N 63°07' E 007°44'0 0.0
2017-Sep-12 02:58N 63°07' E 007°44'0 0.0
2017-Sep-12 02:28N 63°07' E 007°44'0 0.0
2017-Sep-12 01:58N 63°07' E 007°44'0 0.0
2017-Sep-12 01:28N 63°07' E 007°44'0 0.0
2017-Sep-12 00:58N 63°07' E 007°44'0 0.0
2017-Sep-12 00:28N 63°07' E 007°44'0 0.0
2017-Sep-11 23:58N 63°07' E 007°44'0 0.0
2017-Sep-11 23:28N 63°07' E 007°44'0 0.0
2017-Sep-11 22:58N 63°07' E 007°44'0 0.0
2017-Sep-11 22:28N 63°07' E 007°44'0 0.0
2017-Sep-11 21:58N 63°07' E 007°44'0 0.0
2017-Sep-11 21:28N 63°07' E 007°44'0 0.0
2017-Sep-11 20:58N 63°07' E 007°44'0 0.0
2017-Sep-11 20:28N 63°07' E 007°44'0 0.0
2017-Sep-11 19:58N 63°07' E 007°44'0 0.0
2017-Sep-11 19:28N 63°07' E 007°44'0 0.0
2017-Sep-11 18:58N 63°07' E 007°44'0 0.0
2017-Sep-11 18:28N 63°07' E 007°44'0 0.0
2017-Sep-11 17:58N 63°07' E 007°44'0 0.0
2017-Sep-11 17:28N 63°07' E 007°44'0 0.0
2017-Sep-11 16:55N 63°07' E 007°44'0 0.0
2017-Sep-11 16:25N 63°07' E 007°44'0 0.0
2017-Sep-11 15:58N 63°07' E 007°44'0 0.0
2017-Sep-11 15:28N 63°07' E 007°44'0 0.0
2017-Sep-11 14:58N 63°07' E 007°44'0 0.0
2017-Sep-11 14:28N 63°07' E 007°44'0 0.0
2017-Sep-11 13:58N 63°07' E 007°44'0 0.0
2017-Sep-11 13:25N 63°07' E 007°44'0 0.0
2017-Sep-11 12:58N 63°07' E 007°44'0 0.0
2017-Sep-11 12:28N 63°07' E 007°44'0 0.0
2017-Sep-11 11:58N 63°07' E 007°44'0 0.0
2017-Sep-11 11:25N 63°07' E 007°44'0 0.0
2017-Sep-11 10:58N 63°07' E 007°44'0 0.0
2017-Sep-11 10:28N 63°07' E 007°44'0 0.0
2017-Sep-11 09:58N 63°07' E 007°44'0 0.0
2017-Sep-11 09:28N 63°07' E 007°44'0 0.0
2017-Sep-11 08:58N 63°07' E 007°44'0 0.0
2017-Sep-11 08:28N 63°07' E 007°44'0 0.0
2017-Sep-11 07:58N 63°07' E 007°44'0 0.0
2017-Sep-11 07:28N 63°07' E 007°44'0 0.0
2017-Sep-11 06:58N 63°07' E 007°44'0 0.0
2017-Sep-11 06:28N 63°07' E 007°44'0 0.0
2017-Sep-11 05:58N 63°07' E 007°44'0 0.0
2017-Sep-11 05:28N 63°07' E 007°44'0 0.0
2017-Sep-11 04:58N 63°07' E 007°44'0 0.0
2017-Sep-11 04:28N 63°07' E 007°44'0 0.0
2017-Sep-11 03:58N 63°07' E 007°44'0 0.0
2017-Sep-11 03:28N 63°07' E 007°44'0 0.0
2017-Sep-11 02:58N 63°07' E 007°44'0 0.0
2017-Sep-11 02:28N 63°07' E 007°44'0 0.0
2017-Sep-11 01:58N 63°07' E 007°44'0 0.0
2017-Sep-11 01:25N 63°07' E 007°44'0 0.0
2017-Sep-11 00:58N 63°07' E 007°44'0 0.0
2017-Sep-11 00:28N 63°07' E 007°44'0 0.0
2017-Sep-10 23:58N 63°07' E 007°44'0 0.0
2017-Sep-10 23:28N 63°07' E 007°44'0 0.0
2017-Sep-10 22:58N 63°07' E 007°44'0 0.0
2017-Sep-10 22:28N 63°07' E 007°44'0 0.0
2017-Sep-10 21:58N 63°07' E 007°44'0 0.0
2017-Sep-10 21:28N 63°07' E 007°44'  
Track history (hours):
 
Tides and Currents Weather Stations Pressure Air Temp Water Temp Dewpoint Dewpoint Depression Visibility Wind Speed Wind Dir Waves Ship Positions

Erik Bye

Last reported at 2017-Sep-20 20:58 UTC. Time now 2017-Sep-21 01:49 UTC.
Position N 63°07' E 007°44'.

Length 20 m; draft 3 m.

Type: SAR. MMSI: 259460000.

Date/timePositionNaut miles runAvg speedWind from/ knotsBaromVisibWave heightAir tempDewpointWater temp
2017-Sep-20 20:58N 63°07' E 007°44'0 0.0
2017-Sep-20 20:28N 63°07' E 007°44'0 0.0
2017-Sep-20 19:58N 63°07' E 007°44'0 0.0
2017-Sep-20 19:28N 63°07' E 007°44'0 0.0
2017-Sep-20 18:58N 63°07' E 007°44'0 0.0
2017-Sep-20 18:28N 63°07' E 007°44'0 0.0
2017-Sep-20 17:58N 63°07' E 007°44'0 0.0
2017-Sep-20 17:28N 63°07' E 007°44'0 0.0
2017-Sep-20 16:58N 63°07' E 007°44'0 0.0
2017-Sep-20 16:30N 63°07' E 007°44'1 2.0
2017-Sep-20 16:01N 63°06' E 007°43'1 1.7
2017-Sep-20 15:25N 63°07' E 007°44'0 0.0
2017-Sep-20 14:55N 63°07' E 007°44'1 0.8
2017-Sep-20 14:00N 63°07' E 007°46'0 0.5
2017-Sep-20 13:30N 63°07' E 007°46'1 1.2
2017-Sep-20 12:59N 63°07' E 007°44'0 0.0
2017-Sep-20 12:29N 63°07' E 007°44'0 0.0
2017-Sep-20 11:59N 63°07' E 007°44'0 0.0
2017-Sep-20 11:29N 63°07' E 007°44'0 0.0
2017-Sep-20 10:59N 63°07' E 007°44'0 0.0
2017-Sep-20 10:29N 63°07' E 007°44'0 0.0
2017-Sep-20 09:59N 63°07' E 007°44'0 0.0
2017-Sep-20 09:29N 63°07' E 007°44'0 0.0
2017-Sep-20 08:59N 63°07' E 007°44'0 0.0
2017-Sep-20 08:29N 63°07' E 007°44'0 0.0
2017-Sep-20 07:59N 63°07' E 007°44'0 0.0
2017-Sep-20 07:29N 63°07' E 007°44'0 0.0
2017-Sep-20 06:59N 63°07' E 007°44'0 0.0
2017-Sep-20 06:29N 63°07' E 007°44'0 0.0
2017-Sep-20 05:59N 63°07' E 007°44'0 0.0
2017-Sep-20 05:29N 63°07' E 007°44'0 0.0
2017-Sep-20 04:59N 63°07' E 007°44'0 0.0
2017-Sep-20 04:29N 63°07' E 007°44'0 0.0
2017-Sep-20 03:59N 63°07' E 007°44'0 0.0
2017-Sep-20 03:29N 63°07' E 007°44'0 0.0
2017-Sep-20 02:59N 63°07' E 007°44'0 0.0
2017-Sep-20 02:29N 63°07' E 007°44'0 0.0
2017-Sep-20 01:59N 63°07' E 007°44'0 0.0
2017-Sep-20 01:29N 63°07' E 007°44'0 0.0
2017-Sep-20 00:59N 63°07' E 007°44'0 0.0
2017-Sep-20 00:29N 63°07' E 007°44'0 0.0
2017-Sep-19 23:59N 63°07' E 007°44'0 0.0
2017-Sep-19 23:29N 63°07' E 007°44'0 0.0
2017-Sep-19 22:59N 63°07' E 007°44'0 0.0
2017-Sep-19 22:29N 63°07' E 007°44'0 0.0
2017-Sep-19 21:59N 63°07' E 007°44'0 0.0
2017-Sep-19 21:29N 63°07' E 007°44'0 0.0
2017-Sep-19 20:59N 63°07' E 007°44'0 0.0
2017-Sep-19 20:29N 63°07' E 007°44'0 0.0
2017-Sep-19 19:59N 63°07' E 007°44'0 0.0
2017-Sep-19 19:29N 63°07' E 007°44'0 0.0
2017-Sep-19 18:59N 63°07' E 007°44'0 0.0
2017-Sep-19 18:29N 63°07' E 007°44'0 0.0
2017-Sep-19 17:59N 63°07' E 007°44'0 0.0
2017-Sep-19 17:29N 63°07' E 007°44'0 0.0
2017-Sep-19 16:59N 63°07' E 007°44'0 0.0
2017-Sep-19 16:29N 63°07' E 007°44'0 0.0
2017-Sep-19 15:59N 63°07' E 007°44'0 0.0
2017-Sep-19 15:29N 63°07' E 007°44'0 0.0
2017-Sep-19 14:59N 63°07' E 007°44'0 0.0
2017-Sep-19 14:29N 63°07' E 007°44'0 0.0
2017-Sep-19 13:59N 63°07' E 007°44'0 0.0
2017-Sep-19 13:29N 63°07' E 007°44'0 0.0
2017-Sep-19 12:59N 63°07' E 007°44'0 0.0
2017-Sep-19 12:29N 63°07' E 007°44'3 5.9
2017-Sep-19 12:00N 63°08' E 007°50'3 5.7
2017-Sep-19 11:30N 63°07' E 007°44'0 0.1
2017-Sep-19 10:57N 63°07' E 007°44'0 0.0
2017-Sep-19 10:27N 63°07' E 007°44'0 0.0
2017-Sep-19 09:57N 63°07' E 007°44'0 0.0
2017-Sep-19 09:27N 63°07' E 007°44'0 0.0
2017-Sep-19 08:57N 63°07' E 007°44'0 0.0
2017-Sep-19 08:27N 63°07' E 007°44'0 0.0
2017-Sep-19 07:57N 63°07' E 007°44'0 0.0
2017-Sep-19 07:27N 63°07' E 007°44'0 0.0
2017-Sep-19 06:57N 63°07' E 007°44'0 0.0
2017-Sep-19 06:27N 63°07' E 007°44'0 0.0
2017-Sep-19 05:57N 63°07' E 007°44'0 0.0
2017-Sep-19 05:27N 63°07' E 007°44'0 0.0
2017-Sep-19 04:57N 63°07' E 007°44'0 0.0
2017-Sep-19 04:27N 63°07' E 007°44'0 0.0
2017-Sep-19 03:57N 63°07' E 007°44'0 0.0
2017-Sep-19 03:27N 63°07' E 007°44'0 0.0
2017-Sep-19 02:57N 63°07' E 007°44'0 0.0
2017-Sep-19 02:27N 63°07' E 007°44'0 0.0
2017-Sep-19 01:57N 63°07' E 007°44'0 0.0
2017-Sep-19 01:27N 63°07' E 007°44'0 0.0
2017-Sep-19 00:57N 63°07' E 007°44'0 0.0
2017-Sep-19 00:27N 63°07' E 007°44'0 0.0
2017-Sep-18 23:57N 63°07' E 007°44'0 0.0
2017-Sep-18 23:27N 63°07' E 007°44'0 0.0
2017-Sep-18 22:57N 63°07' E 007°44'0 0.0
2017-Sep-18 22:27N 63°07' E 007°44'0 0.0
2017-Sep-18 21:57N 63°07' E 007°44'0 0.0
2017-Sep-18 21:27N 63°07' E 007°44'0 0.0
2017-Sep-18 20:57N 63°07' E 007°44'0 0.0
2017-Sep-18 20:27N 63°07' E 007°44'0 0.0
2017-Sep-18 19:57N 63°07' E 007°44'0 0.0
2017-Sep-18 19:27N 63°07' E 007°44'0 0.0
2017-Sep-18 18:57N 63°07' E 007°44'0 0.0
2017-Sep-18 18:27N 63°07' E 007°44'0 0.0
2017-Sep-18 17:57N 63°07' E 007°44'0 0.0
2017-Sep-18 17:27N 63°07' E 007°44'0 0.0
2017-Sep-18 16:57N 63°07' E 007°44'0 0.0
2017-Sep-18 16:27N 63°07' E 007°44'0 0.0
2017-Sep-18 15:57N 63°07' E 007°44'0 0.0
2017-Sep-18 15:27N 63°07' E 007°44'0 0.0
2017-Sep-18 14:57N 63°07' E 007°44'0 0.0
2017-Sep-18 14:27N 63°07' E 007°44'0 0.0
2017-Sep-18 13:57N 63°07' E 007°44'0 0.0
2017-Sep-18 13:27N 63°07' E 007°44'1 1.2
2017-Sep-18 13:01N 63°07' E 007°44'1 2.2
2017-Sep-18 12:30N 63°06' E 007°42'2 3.1
2017-Sep-18 12:00N 63°07' E 007°44'0 0.5
2017-Sep-18 11:31N 63°07' E 007°45'2 4.8
2017-Sep-18 11:00N 63°08' E 007°49'4 7.8
2017-Sep-18 10:30N 63°07' E 007°57'611.7
2017-Sep-18 10:00N 63°07' E 007°44'0 0.0
2017-Sep-18 09:29N 63°07' E 007°44'0 0.0
2017-Sep-18 08:59N 63°07' E 007°44'0 0.0
2017-Sep-18 08:29N 63°07' E 007°44'0 0.0
2017-Sep-18 07:59N 63°07' E 007°44'0 0.0
2017-Sep-18 07:29N 63°07' E 007°44'0 0.0
2017-Sep-18 06:59N 63°07' E 007°44'0 0.0
2017-Sep-18 06:29N 63°07' E 007°44'0 0.0
2017-Sep-18 05:59N 63°07' E 007°44'0 0.0
2017-Sep-18 05:29N 63°07' E 007°44'0 0.0
2017-Sep-18 04:59N 63°07' E 007°44'0 0.0
2017-Sep-18 04:29N 63°07' E 007°44'0 0.0
2017-Sep-18 03:59N 63°07' E 007°44'0 0.0
2017-Sep-18 03:29N 63°07' E 007°44'0 0.0
2017-Sep-18 02:59N 63°07' E 007°44'0 0.0
2017-Sep-18 02:29N 63°07' E 007°44'0 0.0
2017-Sep-18 01:59N 63°07' E 007°44'0 0.0
2017-Sep-18 01:29N 63°07' E 007°44'0 0.0
2017-Sep-18 00:59N 63°07' E 007°44'0 0.0
2017-Sep-18 00:29N 63°07' E 007°44'0 0.0
2017-Sep-17 23:59N 63°07' E 007°44'0 0.0
2017-Sep-17 23:29N 63°07' E 007°44'0 0.0
2017-Sep-17 22:59N 63°07' E 007°44'0 0.0
2017-Sep-17 22:29N 63°07' E 007°44'0 0.0
2017-Sep-17 21:59N 63°07' E 007°44'0 0.0
2017-Sep-17 21:29N 63°07' E 007°44'0 0.0
2017-Sep-17 20:59N 63°07' E 007°44'0 0.0
2017-Sep-17 20:29N 63°07' E 007°44'0 0.0
2017-Sep-17 19:59N 63°07' E 007°44'0 0.0
2017-Sep-17 19:29N 63°07' E 007°44'0 0.0
2017-Sep-17 18:59N 63°07' E 007°44'0 0.0
2017-Sep-17 18:29N 63°07' E 007°44'0 0.0
2017-Sep-17 17:59N 63°07' E 007°44'0 0.0
2017-Sep-17 17:29N 63°07' E 007°44'0 0.0
2017-Sep-17 16:59N 63°07' E 007°44'0 0.0
2017-Sep-17 16:29N 63°07' E 007°44'0 0.0
2017-Sep-17 15:59N 63°07' E 007°44'0 0.0
2017-Sep-17 15:29N 63°07' E 007°44'0 0.0
2017-Sep-17 14:59N 63°07' E 007°44'0 0.0
2017-Sep-17 14:29N 63°07' E 007°44'0 0.0
2017-Sep-17 13:59N 63°07' E 007°44'0 0.0
2017-Sep-17 13:29N 63°07' E 007°44'0 0.0
2017-Sep-17 12:59N 63°07' E 007°44'0 0.0
2017-Sep-17 12:29N 63°07' E 007°44'0 0.0
2017-Sep-17 11:59N 63°07' E 007°44'0 0.0
2017-Sep-17 11:29N 63°07' E 007°44'0 0.0
2017-Sep-17 10:59N 63°07' E 007°44'0 0.0
2017-Sep-17 10:29N 63°07' E 007°44'0 0.0
2017-Sep-17 09:59N 63°07' E 007°44'0 0.0
2017-Sep-17 09:29N 63°07' E 007°44'0 0.0
2017-Sep-17 08:59N 63°07' E 007°44'0 0.0
2017-Sep-17 08:29N 63°07' E 007°44'0 0.0
2017-Sep-17 07:59N 63°07' E 007°44'0 0.0
2017-Sep-17 07:29N 63°07' E 007°44'0 0.0
2017-Sep-17 06:59N 63°07' E 007°44'0 0.0
2017-Sep-17 06:29N 63°07' E 007°44'0 0.0
2017-Sep-17 05:59N 63°07' E 007°44'0 0.0
2017-Sep-17 05:29N 63°07' E 007°44'0 0.0
2017-Sep-17 04:59N 63°07' E 007°44'0 0.0
2017-Sep-17 04:29N 63°07' E 007°44'0 0.0
2017-Sep-17 03:56N 63°07' E 007°44'0 0.0
2017-Sep-17 03:29N 63°07' E 007°44'0 0.0
2017-Sep-17 02:59N 63°07' E 007°44'0 0.0
2017-Sep-17 02:29N 63°07' E 007°44'0 0.0
2017-Sep-17 01:59N 63°07' E 007°44'0 0.0
2017-Sep-17 01:29N 63°07' E 007°44'0 0.0
2017-Sep-17 00:59N 63°07' E 007°44'0 0.0
2017-Sep-17 00:29N 63°07' E 007°44'0 0.0
2017-Sep-16 23:59N 63°07' E 007°44'0 0.0
2017-Sep-16 23:29N 63°07' E 007°44'0 0.0
2017-Sep-16 22:59N 63°07' E 007°44'0 0.0
2017-Sep-16 22:29N 63°07' E 007°44'0 0.0
2017-Sep-16 21:59N 63°07' E 007°44'0 0.0
2017-Sep-16 21:29N 63°07' E 007°44'0 0.0
2017-Sep-16 20:59N 63°07' E 007°44'0 0.0
2017-Sep-16 20:29N 63°07' E 007°44'0 0.0
2017-Sep-16 19:59N 63°07' E 007°44'0 0.0
2017-Sep-16 19:29N 63°07' E 007°44'0 0.0
2017-Sep-16 18:59N 63°07' E 007°44'0 0.0
2017-Sep-16 18:29N 63°07' E 007°44'0 0.0
2017-Sep-16 17:59N 63°07' E 007°44'0 0.0
2017-Sep-16 17:29N 63°07' E 007°44'0 0.0
2017-Sep-16 16:59N 63°07' E 007°44'0 0.0
2017-Sep-16 16:29N 63°07' E 007°44'0 0.0
2017-Sep-16 15:59N 63°07' E 007°44'0 0.0
2017-Sep-16 15:29N 63°07' E 007°44'0 0.0
2017-Sep-16 14:59N 63°07' E 007°44'0 0.0
2017-Sep-16 14:29N 63°07' E 007°44'0 0.0
2017-Sep-16 13:59N 63°07' E 007°44'0 0.0
2017-Sep-16 13:29N 63°07' E 007°44'0 0.0
2017-Sep-16 12:59N 63°07' E 007°44'0 0.0
2017-Sep-16 12:29N 63°07' E 007°44'0 0.0
2017-Sep-16 11:59N 63°07' E 007°44'1 2.7
2017-Sep-16 11:30N 63°07' E 007°41'3 6.3
2017-Sep-16 11:00N 63°04' E 007°41'3 6.8
2017-Sep-16 10:31N 63°07' E 007°44'0 0.7
2017-Sep-16 09:58N 63°07' E 007°44'0 0.0
2017-Sep-16 09:28N 63°07' E 007°44'0 0.0
2017-Sep-16 08:58N 63°07' E 007°44'0 0.0
2017-Sep-16 08:28N 63°07' E 007°44'0 0.0
2017-Sep-16 07:58N 63°07' E 007°44'0 0.0
2017-Sep-16 07:28N 63°07' E 007°44'0 0.0
2017-Sep-16 06:58N 63°07' E 007°44'0 0.0
2017-Sep-16 06:28N 63°07' E 007°44'0 0.0
2017-Sep-16 05:58N 63°07' E 007°44'0 0.0
2017-Sep-16 05:28N 63°07' E 007°44'0 0.0
2017-Sep-16 04:58N 63°07' E 007°44'0 0.0
2017-Sep-16 04:28N 63°07' E 007°44'0 0.0
2017-Sep-16 03:55N 63°07' E 007°44'0 0.0
2017-Sep-16 03:28N 63°07' E 007°44'0 0.0
2017-Sep-16 02:58N 63°07' E 007°44'0 0.0
2017-Sep-16 02:28N 63°07' E 007°44'0 0.0
2017-Sep-16 01:58N 63°07' E 007°44'0 0.0
2017-Sep-16 01:28N 63°07' E 007°44'0 0.0
2017-Sep-16 00:58N 63°07' E 007°44'0 0.0
2017-Sep-16 00:28N 63°07' E 007°44'0 0.0
2017-Sep-15 23:58N 63°07' E 007°44'0 0.0
2017-Sep-15 23:28N 63°07' E 007°44'0 0.0
2017-Sep-15 22:58N 63°07' E 007°44'0 0.0
2017-Sep-15 22:28N 63°07' E 007°44'0 0.0
2017-Sep-15 21:58N 63°07' E 007°44'0 0.0
2017-Sep-15 21:28N 63°07' E 007°44'0 0.0
2017-Sep-15 20:58N 63°07' E 007°44'0 0.0
2017-Sep-15 20:28N 63°07' E 007°44'0 0.0
2017-Sep-15 19:58N 63°07' E 007°44'0 0.0
2017-Sep-15 19:28N 63°07' E 007°44'0 0.0
2017-Sep-15 18:58N 63°07' E 007°44'0 0.0
2017-Sep-15 18:25N 63°07' E 007°44'0 0.0
2017-Sep-15 17:58N 63°07' E 007°44'0 0.0
2017-Sep-15 17:28N 63°07' E 007°44'0 0.0
2017-Sep-15 16:58N 63°07' E 007°44'0 0.0
2017-Sep-15 16:28N 63°07' E 007°44'0 0.0
2017-Sep-15 15:58N 63°07' E 007°44'0 0.0
2017-Sep-15 15:28N 63°07' E 007°44'0 0.0
2017-Sep-15 14:58N 63°07' E 007°44'0 0.0
2017-Sep-15 14:25N 63°07' E 007°44'0 0.0
2017-Sep-15 13:58N 63°07' E 007°44'0 0.0
2017-Sep-15 13:28N 63°07' E 007°44'0 0.0
2017-Sep-15 12:58N 63°07' E 007°44'0 0.0
2017-Sep-15 12:28N 63°07' E 007°44'0 0.0
2017-Sep-15 11:58N 63°07' E 007°44'0 0.0
2017-Sep-15 11:28N 63°07' E 007°44'0 0.0
2017-Sep-15 10:55N 63°07' E 007°44'0 0.0
2017-Sep-15 10:28N 63°07' E 007°44'0 0.0
2017-Sep-15 09:55N 63°07' E 007°44'0 0.0
2017-Sep-15 09:28N 63°07' E 007°44'0 0.0
2017-Sep-15 08:58N 63°07' E 007°44'0 0.0
2017-Sep-15 08:28N 63°07' E 007°44'0 0.0
2017-Sep-15 07:58N 63°07' E 007°44'0 0.0
2017-Sep-15 07:28N 63°07' E 007°44'0 0.0
2017-Sep-15 06:58N 63°07' E 007°44'0 0.0
2017-Sep-15 06:28N 63°07' E 007°44'0 0.0
2017-Sep-15 05:58N 63°07' E 007°44'0 0.0
2017-Sep-15 05:28N 63°07' E 007°44'0 0.0
2017-Sep-15 04:58N 63°07' E 007°44'0 0.0
2017-Sep-15 04:28N 63°07' E 007°44'0 0.0
2017-Sep-15 03:58N 63°07' E 007°44'0 0.0
2017-Sep-15 03:28N 63°07' E 007°44'0 0.0
2017-Sep-15 02:58N 63°07' E 007°44'0 0.0
2017-Sep-15 02:28N 63°07' E 007°44'0 0.0
2017-Sep-15 01:58N 63°07' E 007°44'0 0.0
2017-Sep-15 01:28N 63°07' E 007°44'0 0.0
2017-Sep-15 00:58N 63°07' E 007°44'0 0.0
2017-Sep-15 00:28N 63°07' E 007°44'0 0.0
2017-Sep-14 23:58N 63°07' E 007°44'0 0.0
2017-Sep-14 23:28N 63°07' E 007°44'0 0.0
2017-Sep-14 22:58N 63°07' E 007°44'0 0.0
2017-Sep-14 22:28N 63°07' E 007°44'0 0.0
2017-Sep-14 21:58N 63°07' E 007°44'0 0.0
2017-Sep-14 21:28N 63°07' E 007°44'0 0.0
2017-Sep-14 20:58N 63°07' E 007°44'0 0.0
2017-Sep-14 20:28N 63°07' E 007°44'0 0.0
2017-Sep-14 19:55N 63°07' E 007°44'0 0.0
2017-Sep-14 19:28N 63°07' E 007°44'0 0.0
2017-Sep-14 18:58N 63°07' E 007°44'0 0.0
2017-Sep-14 18:28N 63°07' E 007°44'0 0.0
2017-Sep-14 17:55N 63°07' E 007°44'0 0.0
2017-Sep-14 17:25N 63°07' E 007°44'0 0.0
2017-Sep-14 16:58N 63°07' E 007°44'0 0.0
2017-Sep-14 16:28N 63°07' E 007°44'0 0.0
2017-Sep-14 15:58N 63°07' E 007°44'0 0.0
2017-Sep-14 15:25N 63°07' E 007°44'0 0.0
2017-Sep-14 14:58N 63°07' E 007°44'0 0.0
2017-Sep-14 14:28N 63°07' E 007°44'0 0.0
2017-Sep-14 13:58N 63°07' E 007°44'0 0.0
2017-Sep-14 13:28N 63°07' E 007°44'0 0.0
2017-Sep-14 12:58N 63°07' E 007°44'0 0.0
2017-Sep-14 12:28N 63°07' E 007°44'0 0.0
2017-Sep-14 11:58N 63°07' E 007°44'0 0.0
2017-Sep-14 11:28N 63°07' E 007°44'0 0.0
2017-Sep-14 10:58N 63°07' E 007°44'0 0.0
2017-Sep-14 10:28N 63°07' E 007°44'0 0.0
2017-Sep-14 09:58N 63°07' E 007°44'0 0.0
2017-Sep-14 09:28N 63°07' E 007°44'0 0.0
2017-Sep-14 08:58N 63°07' E 007°44'0 0.0
2017-Sep-14 08:28N 63°07' E 007°44'0 0.0
2017-Sep-14 07:58N 63°07' E 007°44'0 0.0
2017-Sep-14 07:28N 63°07' E 007°44'0 0.0
2017-Sep-14 06:58N 63°07' E 007°44'0 0.0
2017-Sep-14 06:28N 63°07' E 007°44'0 0.0
2017-Sep-14 05:58N 63°07' E 007°44'0 0.0
2017-Sep-14 05:28N 63°07' E 007°44'0 0.0
2017-Sep-14 04:58N 63°07' E 007°44'0 0.0
2017-Sep-14 04:28N 63°07' E 007°44'0 0.0
2017-Sep-14 03:58N 63°07' E 007°44'0 0.0
2017-Sep-14 03:25N 63°07' E 007°44'0 0.0
2017-Sep-14 02:58N 63°07' E 007°44'0 0.0
2017-Sep-14 02:28N 63°07' E 007°44'0 0.0
2017-Sep-14 01:58N 63°07' E 007°44'0 0.0
2017-Sep-14 01:28N 63°07' E 007°44'0 0.0
2017-Sep-14 00:58N 63°07' E 007°44'0 0.0
2017-Sep-14 00:28N 63°07' E 007°44'0 0.0
2017-Sep-13 23:58N 63°07' E 007°44'0 0.0
2017-Sep-13 23:28N 63°07' E 007°44'0 0.0
2017-Sep-13 22:58N 63°07' E 007°44'0 0.0
2017-Sep-13 22:28N 63°07' E 007°44'0 0.0
2017-Sep-13 21:58N 63°07' E 007°44'0 0.0
2017-Sep-13 21:28N 63°07' E 007°44'0 0.0
2017-Sep-13 20:58N 63°07' E 007°44'0 0.0
2017-Sep-13 20:28N 63°07' E 007°44'0 0.0
2017-Sep-13 19:58N 63°07' E 007°44'0 0.0
2017-Sep-13 19:28N 63°07' E 007°44'0 0.0
2017-Sep-13 18:55N 63°07' E 007°44'0 0.0
2017-Sep-13 18:28N 63°07' E 007°44'0 0.0
2017-Sep-13 17:58N 63°07' E 007°44'0 0.0
2017-Sep-13 17:28N 63°07' E 007°44'0 0.0
2017-Sep-13 16:58N 63°07' E 007°44'0 0.0
2017-Sep-13 16:28N 63°07' E 007°44'0 0.0
2017-Sep-13 15:58N 63°07' E 007°44'0 0.0
2017-Sep-13 15:28N 63°07' E 007°44'0 0.0
2017-Sep-13 14:58N 63°07' E 007°44'0 0.0
2017-Sep-13 14:28N 63°07' E 007°44'0 0.0
2017-Sep-13 13:58N 63°07' E 007°44'0 0.0
2017-Sep-13 13:28N 63°07' E 007°44'0 0.0
2017-Sep-13 12:58N 63°07' E 007°44'0 0.0
2017-Sep-13 12:28N 63°07' E 007°44'0 0.0
2017-Sep-13 11:58N 63°07' E 007°44'0 0.0
2017-Sep-13 11:28N 63°07' E 007°44'0 0.0
2017-Sep-13 10:58N 63°07' E 007°44'0 0.0
2017-Sep-13 10:28N 63°07' E 007°44'0 0.0
2017-Sep-13 09:58N 63°07' E 007°44'0 0.0
2017-Sep-13 09:28N 63°07' E 007°44'0 0.0
2017-Sep-13 08:58N 63°07' E 007°44'0 0.0
2017-Sep-13 08:28N 63°07' E 007°44'0 0.0
2017-Sep-13 07:58N 63°07' E 007°44'0 0.0
2017-Sep-13 07:28N 63°07' E 007°44'0 0.0
2017-Sep-13 06:58N 63°07' E 007°44'0 0.0
2017-Sep-13 06:28N 63°07' E 007°44'0 0.0
2017-Sep-13 05:58N 63°07' E 007°44'0 0.0
2017-Sep-13 05:28N 63°07' E 007°44'0 0.0
2017-Sep-13 04:58N 63°07' E 007°44'0 0.0
2017-Sep-13 04:28N 63°07' E 007°44'0 0.0
2017-Sep-13 03:58N 63°07' E 007°44'0 0.0
2017-Sep-13 03:28N 63°07' E 007°44'0 0.0
2017-Sep-13 02:58N 63°07' E 007°44'0 0.0
2017-Sep-13 02:28N 63°07' E 007°44'0 0.0
2017-Sep-13 01:58N 63°07' E 007°44'0 0.0
2017-Sep-13 01:28N 63°07' E 007°44'0 0.0
2017-Sep-13 00:58N 63°07' E 007°44'0 0.0
2017-Sep-13 00:28N 63°07' E 007°44'0 0.0
2017-Sep-12 23:58N 63°07' E 007°44'0 0.0
2017-Sep-12 23:28N 63°07' E 007°44'0 0.0
2017-Sep-12 22:58N 63°07' E 007°44'0 0.0
2017-Sep-12 22:28N 63°07' E 007°44'0 0.0
2017-Sep-12 21:58N 63°07' E 007°44'0 0.0
2017-Sep-12 21:28N 63°07' E 007°44'0 0.0
2017-Sep-12 20:58N 63°07' E 007°44'0 0.0
2017-Sep-12 20:28N 63°07' E 007°44'0 0.0
2017-Sep-12 19:58N 63°07' E 007°44'0 0.0
2017-Sep-12 19:28N 63°07' E 007°44'0 0.0
2017-Sep-12 18:58N 63°07' E 007°44'0 0.0
2017-Sep-12 18:28N 63°07' E 007°44'0 0.0
2017-Sep-12 17:58N 63°07' E 007°44'0 0.0
2017-Sep-12 17:28N 63°07' E 007°44'0 0.0
2017-Sep-12 16:58N 63°07' E 007°44'0 0.0
2017-Sep-12 16:28N 63°07' E 007°44'0 0.0
2017-Sep-12 15:58N 63°07' E 007°44'0 0.0
2017-Sep-12 15:28N 63°07' E 007°44'0 0.0
2017-Sep-12 14:58N 63°07' E 007°44'0 0.0
2017-Sep-12 14:28N 63°07' E 007°44'0 0.0
2017-Sep-12 13:58N 63°07' E 007°44'0 0.0
2017-Sep-12 13:28N 63°07' E 007°44'0 0.0
2017-Sep-12 12:58N 63°07' E 007°44'0 0.0
2017-Sep-12 12:28N 63°07' E 007°44'0 0.0
2017-Sep-12 11:58N 63°07' E 007°44'0 0.0
2017-Sep-12 11:28N 63°07' E 007°44'0 0.0
2017-Sep-12 10:58N 63°07' E 007°44'0 0.0
2017-Sep-12 10:28N 63°07' E 007°44'0 0.0
2017-Sep-12 09:58N 63°07' E 007°44'0 0.0
2017-Sep-12 09:28N 63°07' E 007°44'0 0.0
2017-Sep-12 08:55N 63°07' E 007°44'0 0.0
2017-Sep-12 08:28N 63°07' E 007°44'0 0.0
2017-Sep-12 07:58N 63°07' E 007°44'0 0.0
2017-Sep-12 07:28N 63°07' E 007°44'0 0.0
2017-Sep-12 06:58N 63°07' E 007°44'0 0.0
2017-Sep-12 06:28N 63°07' E 007°44'0 0.0
2017-Sep-12 05:55N 63°07' E 007°44'0 0.0
2017-Sep-12 05:28N 63°07' E 007°44'0 0.0
2017-Sep-12 04:58N 63°07' E 007°44'0 0.0
2017-Sep-12 04:28N 63°07' E 007°44'0 0.0
2017-Sep-12 03:58N 63°07' E 007°44'0 0.0
2017-Sep-12 03:28N 63°07' E 007°44'0 0.0
2017-Sep-12 02:58N 63°07' E 007°44'0 0.0
2017-Sep-12 02:28N 63°07' E 007°44'0 0.0
2017-Sep-12 01:58N 63°07' E 007°44'0 0.0
2017-Sep-12 01:28N 63°07' E 007°44'0 0.0
2017-Sep-12 00:58N 63°07' E 007°44'0 0.0
2017-Sep-12 00:28N 63°07' E 007°44'0 0.0
2017-Sep-11 23:58N 63°07' E 007°44'0 0.0
2017-Sep-11 23:28N 63°07' E 007°44'0 0.0
2017-Sep-11 22:58N 63°07' E 007°44'0 0.0
2017-Sep-11 22:28N 63°07' E 007°44'0 0.0
2017-Sep-11 21:58N 63°07' E 007°44'0 0.0
2017-Sep-11 21:28N 63°07' E 007°44'0 0.0
2017-Sep-11 20:58N 63°07' E 007°44'0 0.0
2017-Sep-11 20:28N 63°07' E 007°44'0 0.0
2017-Sep-11 19:58N 63°07' E 007°44'0 0.0
2017-Sep-11 19:28N 63°07' E 007°44'0 0.0
2017-Sep-11 18:58N 63°07' E 007°44'0 0.0
2017-Sep-11 18:28N 63°07' E 007°44'0 0.0
2017-Sep-11 17:58N 63°07' E 007°44'0 0.0
2017-Sep-11 17:28N 63°07' E 007°44'0 0.0
2017-Sep-11 16:55N 63°07' E 007°44'0 0.0
2017-Sep-11 16:25N 63°07' E 007°44'0 0.0
2017-Sep-11 15:58N 63°07' E 007°44'0 0.0
2017-Sep-11 15:28N 63°07' E 007°44'0 0.0
2017-Sep-11 14:58N 63°07' E 007°44'0 0.0
2017-Sep-11 14:28N 63°07' E 007°44'0 0.0
2017-Sep-11 13:58N 63°07' E 007°44'0 0.0
2017-Sep-11 13:25N 63°07' E 007°44'0 0.0
2017-Sep-11 12:58N 63°07' E 007°44'0 0.0
2017-Sep-11 12:28N 63°07' E 007°44'0 0.0
2017-Sep-11 11:58N 63°07' E 007°44'0 0.0
2017-Sep-11 11:25N 63°07' E 007°44'0 0.0
2017-Sep-11 10:58N 63°07' E 007°44'0 0.0
2017-Sep-11 10:28N 63°07' E 007°44'0 0.0
2017-Sep-11 09:58N 63°07' E 007°44'0 0.0
2017-Sep-11 09:28N 63°07' E 007°44'0 0.0
2017-Sep-11 08:58N 63°07' E 007°44'0 0.0
2017-Sep-11 08:28N 63°07' E 007°44'0 0.0
2017-Sep-11 07:58N 63°07' E 007°44'0 0.0
2017-Sep-11 07:28N 63°07' E 007°44'0 0.0
2017-Sep-11 06:58N 63°07' E 007°44'0 0.0
2017-Sep-11 06:28N 63°07' E 007°44'0 0.0
2017-Sep-11 05:58N 63°07' E 007°44'0 0.0
2017-Sep-11 05:28N 63°07' E 007°44'0 0.0
2017-Sep-11 04:58N 63°07' E 007°44'0 0.0
2017-Sep-11 04:28N 63°07' E 007°44'0 0.0
2017-Sep-11 03:58N 63°07' E 007°44'0 0.0
2017-Sep-11 03:28N 63°07' E 007°44'0 0.0
2017-Sep-11 02:58N 63°07' E 007°44'0 0.0
2017-Sep-11 02:28N 63°07' E 007°44'0 0.0
2017-Sep-11 01:58N 63°07' E 007°44'0 0.0
2017-Sep-11 01:25N 63°07' E 007°44'0 0.0
2017-Sep-11 00:58N 63°07' E 007°44'0 0.0
2017-Sep-11 00:28N 63°07' E 007°44'0 0.0
2017-Sep-10 23:58N 63°07' E 007°44'0 0.0
2017-Sep-10 23:28N 63°07' E 007°44'0 0.0
2017-Sep-10 22:58N 63°07' E 007°44'0 0.0
2017-Sep-10 22:28N 63°07' E 007°44'0 0.0
2017-Sep-10 21:58N 63°07' E 007°44'0 0.0
2017-Sep-10 21:28N 63°07' E 007°44'  

Dump ship's entire track history